createdAt,value
2022-11-12T00:03:12.817Z,15.23
2022-11-12T00:06:34.283Z,16.52
2022-11-12T00:09:56.008Z,15.45
2022-11-12T00:13:17.581Z,14.63
2022-11-12T00:16:39.339Z,15.65
2022-11-12T00:20:01.106Z,14.53
2022-11-12T00:23:22.878Z,14.82
2022-11-12T00:26:44.287Z,15.25
2022-11-12T00:30:07.620Z,15.35
2022-11-12T00:33:29.288Z,15.65
2022-11-12T00:36:50.920Z,14.87
2022-11-12T00:40:14.524Z,14.05
2022-11-12T00:43:36.309Z,14.98
2022-11-12T00:46:57.826Z,14.23
2022-11-12T00:50:19.311Z,14.77
2022-11-12T00:53:40.703Z,14.23
2022-11-12T00:57:02.139Z,14.77
2022-11-12T01:00:23.595Z,13.90
2022-11-12T01:03:45.378Z,13.50
2022-11-12T01:07:06.948Z,13.90
2022-11-12T01:10:30.226Z,12.77
2022-11-12T01:13:57.178Z,13.40
2022-11-12T01:17:18.771Z,13.77
2022-11-12T01:20:41.176Z,13.45
2022-11-12T01:24:02.715Z,13.35
2022-11-12T01:27:24.455Z,13.10
2022-11-12T01:30:45.949Z,13.32
2022-11-12T01:34:10.163Z,13.68
2022-11-12T01:37:32.044Z,13.35
2022-11-12T01:40:53.838Z,14.80
2022-11-12T01:44:15.311Z,13.70
2022-11-12T01:47:36.871Z,12.65
2022-11-12T01:50:59.252Z,13.73
2022-11-12T01:54:22.082Z,13.00
2022-11-12T01:57:55.199Z,13.65
2022-11-12T02:01:16.758Z,13.03
2022-11-12T02:04:42.567Z,13.57
2022-11-12T02:08:06.064Z,13.10
2022-11-12T02:11:27.959Z,12.75
2022-11-12T02:14:49.467Z,13.40
2022-11-12T02:18:11.149Z,12.23
2022-11-12T02:21:38.813Z,13.07
2022-11-12T02:25:02.931Z,13.13
2022-11-12T02:28:25.000Z,12.73
2022-11-12T02:31:46.785Z,12.98
2022-11-12T02:35:09.176Z,13.47
2022-11-12T02:38:30.988Z,13.52
2022-11-12T02:41:52.531Z,12.75
2022-11-12T02:45:15.976Z,13.43
2022-11-12T02:48:37.583Z,13.57
2022-11-12T02:51:59.428Z,12.93
2022-11-12T02:55:21.326Z,13.18
2022-11-12T02:58:42.930Z,12.80
2022-11-12T03:02:04.727Z,13.00
2022-11-12T03:05:30.793Z,13.05
2022-11-12T03:08:52.129Z,13.17
2022-11-12T03:12:13.489Z,12.95
2022-11-12T03:15:34.919Z,13.65
2022-11-12T03:18:56.289Z,12.85
2022-11-12T03:22:17.674Z,13.15
2022-11-12T03:25:39.294Z,13.17
2022-11-12T03:29:01.055Z,13.52
2022-11-12T03:32:22.623Z,12.90
2022-11-12T03:35:44.251Z,12.95
2022-11-12T03:39:05.820Z,13.15
2022-11-12T03:42:27.141Z,12.13
2022-11-12T03:45:48.630Z,12.73
2022-11-12T03:49:09.989Z,12.90
2022-11-12T03:52:31.444Z,13.35
2022-11-12T03:55:53.153Z,12.93
2022-11-12T03:59:15.372Z,12.43
2022-11-12T04:02:37.047Z,12.43
2022-11-12T04:06:17.672Z,12.40
2022-11-12T04:09:39.531Z,13.13
2022-11-12T04:13:19.900Z,13.10
2022-11-12T04:17:00.407Z,12.33
2022-11-12T04:20:40.817Z,12.07
2022-11-12T04:24:02.475Z,13.13
2022-11-12T04:27:26.979Z,12.65
2022-11-12T04:30:48.529Z,12.90
2022-11-12T04:34:28.658Z,12.97
2022-11-12T04:37:50.649Z,12.82
2022-11-12T04:41:31.468Z,13.27
2022-11-12T04:45:05.471Z,13.43
2022-11-12T04:48:27.730Z,12.70
2022-11-12T04:52:04.980Z,12.53
2022-11-12T04:55:26.503Z,13.55
2022-11-12T04:58:48.042Z,14.30
2022-11-12T05:02:09.568Z,13.60
2022-11-12T05:05:33.773Z,13.30
2022-11-12T05:08:56.509Z,13.13
2022-11-12T05:12:18.019Z,13.32
2022-11-12T05:15:39.581Z,13.68
2022-11-12T05:19:01.240Z,13.77
2022-11-12T05:22:42.847Z,13.68
2022-11-12T05:26:04.540Z,13.47
2022-11-12T05:29:25.899Z,14.10
2022-11-12T05:32:47.407Z,13.10
2022-11-12T05:36:09.202Z,13.80
2022-11-12T05:39:31.088Z,14.18
2022-11-12T05:42:52.524Z,14.50
2022-11-12T05:46:13.854Z,13.65
2022-11-12T05:49:35.587Z,14.30
2022-11-12T05:52:57.094Z,14.27
2022-11-12T05:56:18.502Z,13.80
2022-11-12T05:59:40.419Z,11.77
2022-11-12T06:03:01.735Z,12.30
2022-11-12T06:06:23.654Z,11.38
2022-11-12T06:09:45.320Z,11.52
2022-11-12T06:13:07.456Z,9.95
2022-11-12T06:16:30.155Z,10.57
2022-11-12T06:19:52.076Z,10.57
2022-11-12T06:23:13.956Z,11.38
2022-11-12T06:26:36.267Z,11.38
2022-11-12T06:29:58.506Z,11.70
2022-11-12T06:33:20.019Z,11.40
2022-11-12T06:36:41.691Z,11.68
2022-11-12T06:40:03.608Z,12.30
2022-11-12T06:43:25.983Z,12.35
2022-11-12T06:46:47.707Z,12.00
2022-11-12T06:50:09.540Z,12.90
2022-11-12T06:53:31.185Z,13.23
2022-11-12T06:56:52.755Z,13.07
2022-11-12T07:00:14.954Z,12.43
2022-11-12T07:03:37.135Z,13.27
2022-11-12T07:06:58.935Z,14.73
2022-11-12T07:10:21.111Z,14.25
2022-11-12T07:13:44.554Z,13.10
2022-11-12T07:17:06.419Z,13.70
2022-11-12T07:20:29.559Z,13.55
2022-11-12T07:23:51.419Z,14.33
2022-11-12T07:27:13.086Z,14.85
2022-11-12T07:30:34.897Z,14.77
2022-11-12T07:33:56.387Z,14.77
2022-11-12T07:37:18.175Z,15.82
2022-11-12T07:40:39.765Z,14.07
2022-11-12T07:44:01.457Z,14.20
2022-11-12T07:47:23.079Z,13.57
2022-11-12T07:50:44.737Z,14.10
2022-11-12T07:54:06.496Z,14.68
2022-11-12T07:57:28.083Z,14.63
2022-11-12T08:00:49.914Z,14.07
2022-11-12T08:04:14.504Z,13.95
2022-11-12T08:07:36.727Z,14.30
2022-11-12T08:10:59.435Z,15.27
2022-11-12T08:14:21.114Z,14.87
2022-11-12T08:17:42.614Z,14.88
2022-11-12T08:21:06.930Z,15.43
2022-11-12T08:24:28.664Z,14.30
2022-11-12T08:27:50.664Z,14.40
2022-11-12T08:31:14.849Z,13.90
2022-11-12T08:34:41.194Z,13.70
2022-11-12T08:38:04.802Z,14.55
2022-11-12T08:41:26.662Z,15.00
2022-11-12T08:44:48.814Z,15.40
2022-11-12T08:48:14.318Z,18.27
2022-11-12T08:51:36.453Z,14.75
2022-11-12T08:54:58.309Z,15.52
2022-11-12T08:58:19.803Z,15.75
2022-11-12T09:01:41.689Z,14.95
2022-11-12T09:05:03.224Z,14.70
2022-11-12T09:08:26.123Z,14.00
2022-11-12T09:11:48.360Z,14.52
2022-11-12T09:15:36.374Z,13.95
2022-11-12T09:18:51.603Z,13.90
2022-11-12T09:22:13.024Z,10.37
2022-11-12T09:25:34.971Z,13.38
2022-11-12T09:28:56.624Z,10.90
2022-11-12T09:32:18.231Z,13.52
2022-11-12T09:35:40.332Z,13.15
2022-11-12T09:39:02.159Z,13.23
2022-11-12T09:42:23.864Z,12.30
2022-11-12T09:46:06.371Z,12.55
2022-11-12T09:49:40.967Z,12.35
2022-11-12T09:53:44.155Z,11.80
2022-11-12T09:57:09.687Z,11.80
2022-11-12T10:00:31.626Z,11.93
2022-11-12T10:04:08.243Z,11.68
2022-11-12T10:08:02.836Z,10.55
2022-11-12T10:12:01.266Z,10.77
2022-11-12T10:16:03.497Z,10.17
2022-11-12T10:19:34.829Z,10.57
2022-11-12T10:23:09.847Z,10.98
2022-11-12T10:26:32.082Z,10.45
2022-11-12T10:30:06.316Z,10.77
2022-11-12T10:33:32.063Z,10.33
2022-11-12T10:37:07.499Z,11.27
2022-11-12T10:40:38.496Z,10.35
2022-11-12T10:44:05.121Z,8.60
2022-11-12T10:47:28.909Z,8.82
2022-11-12T10:50:51.012Z,9.33
2022-11-12T10:54:27.485Z,8.48
2022-11-12T10:58:13.291Z,8.70
2022-11-12T11:01:35.884Z,9.27
2022-11-12T11:04:58.063Z,9.10
2022-11-12T11:08:36.297Z,9.90
2022-11-12T11:11:58.910Z,8.40
2022-11-12T11:15:23.922Z,8.55
2022-11-12T11:18:57.731Z,7.95
2022-11-12T11:22:27.936Z,9.20
2022-11-12T11:25:53.727Z,8.87
2022-11-12T11:29:32.754Z,8.98
2022-11-12T11:33:21.514Z,7.85
2022-11-12T11:37:06.152Z,7.75
2022-11-12T11:40:48.525Z,7.20
2022-11-12T11:44:44.773Z,7.77
2022-11-12T11:48:42.831Z,7.40
2022-11-12T11:52:15.662Z,7.20
2022-11-12T11:55:44.571Z,7.00
2022-11-12T11:59:15.604Z,6.65
2022-11-12T12:03:11.800Z,4.77
2022-11-12T12:06:50.439Z,4.78
2022-11-12T12:10:15.776Z,6.88
2022-11-12T12:14:06.536Z,6.25
2022-11-12T12:17:43.787Z,6.53
2022-11-12T12:21:18.282Z,6.40
2022-11-12T12:25:08.255Z,5.35
2022-11-12T12:28:41.705Z,6.68
2022-11-12T12:32:23.053Z,7.15
2022-11-12T12:36:21.993Z,6.32
2022-11-12T12:39:58.546Z,6.23
2022-11-12T12:43:22.499Z,6.45
2022-11-12T12:47:14.170Z,6.10
2022-11-12T12:50:39.780Z,6.50
2022-11-12T12:54:01.258Z,5.10
2022-11-12T12:57:33.190Z,5.53
2022-11-12T13:01:08.001Z,5.40
2022-11-12T13:05:01.131Z,5.90
2022-11-12T13:08:27.028Z,6.65
2022-11-12T13:12:04.719Z,5.60
2022-11-12T13:15:45.730Z,5.43
2022-11-12T13:19:08.371Z,5.93
2022-11-12T13:22:39.204Z,5.63
2022-11-12T13:26:38.126Z,6.60
2022-11-12T13:29:59.554Z,6.28
2022-11-12T13:33:30.815Z,7.27
2022-11-12T13:37:03.613Z,6.95
2022-11-12T13:40:38.012Z,7.32
2022-11-12T13:43:59.340Z,6.60
2022-11-12T13:47:24.778Z,6.95
2022-11-12T13:50:52.132Z,6.50
2022-11-12T13:54:37.511Z,7.05
2022-11-12T13:57:58.887Z,6.57
2022-11-12T14:01:23.303Z,7.35
2022-11-12T14:04:44.899Z,7.45
2022-11-12T14:08:37.154Z,7.77
2022-11-12T14:11:58.592Z,7.57
2022-11-12T14:15:57.487Z,8.18
2022-11-12T14:19:52.700Z,7.30
2022-11-12T14:23:24.444Z,7.45
2022-11-12T14:26:46.488Z,7.23
2022-11-12T14:30:22.035Z,7.15
2022-11-12T14:33:43.668Z,7.80
2022-11-12T14:37:05.182Z,7.05
2022-11-12T14:40:29.618Z,7.38
2022-11-12T14:44:07.733Z,7.23
2022-11-12T14:47:33.780Z,7.50
2022-11-12T14:51:03.153Z,7.40
2022-11-12T14:54:34.024Z,7.97
2022-11-12T14:57:58.789Z,7.43
2022-11-12T15:02:03.881Z,7.03
2022-11-12T15:05:18.021Z,7.40
2022-11-12T15:08:40.654Z,7.63
2022-11-12T15:12:05.076Z,7.85
2022-11-12T15:15:26.758Z,8.38
2022-11-12T15:19:08.151Z,8.67
2022-11-12T15:22:30.642Z,8.73
2022-11-12T15:25:59.216Z,9.02
2022-11-12T15:29:28.543Z,9.07
2022-11-12T15:33:07.463Z,10.80
2022-11-12T15:36:28.842Z,10.23
2022-11-12T15:39:57.379Z,9.95
2022-11-12T15:43:28.315Z,11.32
2022-11-12T15:46:50.287Z,10.30
2022-11-12T15:50:14.577Z,11.07
2022-11-12T15:53:36.393Z,12.63
2022-11-12T15:56:57.782Z,10.85
2022-11-12T16:00:25.023Z,9.98
2022-11-12T16:03:46.456Z,10.07
2022-11-12T16:07:09.666Z,10.35
2022-11-12T16:10:31.652Z,10.40
2022-11-12T16:13:53.521Z,10.13
2022-11-12T16:17:17.320Z,10.55
2022-11-12T16:20:39.719Z,11.05
2022-11-12T16:24:01.335Z,11.48
2022-11-12T16:27:26.914Z,12.37
2022-11-12T16:30:50.672Z,12.55
2022-11-12T16:34:12.536Z,13.27
2022-11-12T16:37:34.403Z,12.52
2022-11-12T16:40:56.085Z,13.13
2022-11-12T16:44:18.069Z,12.97
2022-11-12T16:47:45.401Z,13.05
2022-11-12T16:51:10.252Z,14.07
2022-11-12T16:54:31.716Z,13.65
2022-11-12T16:57:53.230Z,15.02
2022-11-12T17:01:28.359Z,15.90
2022-11-12T17:04:50.347Z,16.48
2022-11-12T17:08:14.547Z,17.17
2022-11-12T17:11:36.575Z,16.23
2022-11-12T17:14:58.475Z,17.38
2022-11-12T17:18:20.267Z,16.77
2022-11-12T17:21:44.292Z,18.05
2022-11-12T17:25:08.153Z,18.42
2022-11-12T17:28:31.069Z,18.05
2022-11-12T17:31:52.779Z,17.45
2022-11-12T17:35:14.739Z,17.97
2022-11-12T17:38:36.727Z,17.95
2022-11-12T17:41:58.353Z,17.75
2022-11-12T17:45:20.232Z,19.10
2022-11-12T17:48:42.426Z,18.00
2022-11-12T17:52:04.377Z,16.50
2022-11-12T17:55:26.199Z,16.65
2022-11-12T17:58:49.989Z,17.92
2022-11-12T18:02:12.655Z,19.55
2022-11-12T18:05:34.693Z,19.58
2022-11-12T18:08:58.883Z,20.23
2022-11-12T18:12:20.936Z,21.65
2022-11-12T18:15:42.508Z,21.23
2022-11-12T18:19:04.759Z,21.15
2022-11-12T18:22:26.987Z,21.52
2022-11-12T18:25:48.788Z,20.03
2022-11-12T18:29:11.995Z,20.63
2022-11-12T18:32:33.619Z,20.75
2022-11-12T18:36:10.197Z,19.80
2022-11-12T18:39:32.331Z,21.10
2022-11-12T18:42:54.186Z,20.20
2022-11-12T18:46:16.087Z,18.88
2022-11-12T18:49:38.128Z,20.25
2022-11-12T18:52:59.875Z,20.10
2022-11-12T18:56:22.252Z,19.88
2022-11-12T18:59:44.045Z,19.40
2022-11-12T19:03:07.642Z,19.88
2022-11-12T19:06:29.434Z,19.15
2022-11-12T19:09:50.953Z,19.75
2022-11-12T19:13:12.761Z,21.33
2022-11-12T19:16:35.367Z,20.47
2022-11-12T19:19:57.256Z,21.45
2022-11-12T19:23:19.221Z,23.95
2022-11-12T19:26:41.273Z,22.33
2022-11-12T19:30:05.737Z,22.70
2022-11-12T19:33:27.064Z,23.97
2022-11-12T19:37:00.639Z,21.77
2022-11-12T19:40:30.838Z,21.88
2022-11-12T19:43:53.180Z,22.27
2022-11-12T19:47:15.494Z,23.35
2022-11-12T19:50:37.243Z,23.90
2022-11-12T19:53:59.058Z,21.30
2022-11-12T19:57:20.800Z,21.25
2022-11-12T20:00:42.239Z,23.67
2022-11-12T20:04:04.184Z,22.20
2022-11-12T20:07:25.924Z,24.33
2022-11-12T20:10:48.173Z,27.58
2022-11-12T20:14:10.222Z,24.98
2022-11-12T20:17:33.292Z,23.58
2022-11-12T20:20:57.130Z,25.50
2022-11-12T20:24:19.512Z,31.43
2022-11-12T20:27:41.067Z,33.45
2022-11-12T20:31:06.134Z,31.77
2022-11-12T20:34:28.121Z,27.95
2022-11-12T20:37:50.128Z,34.30
2022-11-12T20:41:20.584Z,31.93
2022-11-12T20:44:42.468Z,28.70
2022-11-12T20:48:04.428Z,28.92
2022-11-12T20:51:30.295Z,30.98
2022-11-12T20:54:51.721Z,33.35
2022-11-12T20:58:13.527Z,33.73
2022-11-12T21:01:35.405Z,34.95
2022-11-12T21:04:57.490Z,35.28
2022-11-12T21:08:19.270Z,32.85
2022-11-12T21:11:41.224Z,30.92
2022-11-12T21:15:03.008Z,31.57
2022-11-12T21:18:27.974Z,30.67
2022-11-12T21:21:49.708Z,29.52
2022-11-12T21:25:11.658Z,27.67
2022-11-12T21:28:38.422Z,27.33
2022-11-12T21:32:00.662Z,26.63
2022-11-12T21:35:22.200Z,26.15
2022-11-12T21:38:44.055Z,25.65
2022-11-12T21:42:05.628Z,25.70
2022-11-12T21:45:26.871Z,24.90
2022-11-12T21:48:54.945Z,25.00
2022-11-12T21:52:17.218Z,24.50
2022-11-12T21:55:38.685Z,23.88
2022-11-12T21:59:01.534Z,25.25
2022-11-12T22:02:23.480Z,25.90
2022-11-12T22:05:44.911Z,25.60
2022-11-12T22:09:06.672Z,26.30
2022-11-12T22:12:28.291Z,27.52
2022-11-12T22:15:50.702Z,29.83
2022-11-12T22:19:12.892Z,29.52
2022-11-12T22:22:34.355Z,31.27
2022-11-12T22:25:58.930Z,31.77
2022-11-12T22:29:20.386Z,34.17
2022-11-12T22:32:41.959Z,34.22
2022-11-12T22:36:05.651Z,32.25
2022-11-12T22:39:27.300Z,34.57
2022-11-12T22:42:48.831Z,35.30
2022-11-12T22:46:13.341Z,35.83
2022-11-12T22:49:35.081Z,34.80
2022-11-12T22:52:57.103Z,37.10
2022-11-12T22:56:18.765Z,37.83
2022-11-12T22:59:40.110Z,36.35
2022-11-12T23:03:02.027Z,38.83
2022-11-12T23:06:24.848Z,37.97
2022-11-12T23:09:46.269Z,38.80
2022-11-12T23:13:07.580Z,37.40
2022-11-12T23:16:30.632Z,37.13
2022-11-12T23:19:52.501Z,38.28
2022-11-12T23:23:13.931Z,36.83
2022-11-12T23:26:35.977Z,35.70
2022-11-12T23:29:57.978Z,36.20
2022-11-12T23:33:19.547Z,35.70
2022-11-12T23:36:41.587Z,35.00
2022-11-12T23:40:03.843Z,33.83
2022-11-12T23:43:25.622Z,32.78
2022-11-12T23:46:50.649Z,32.03
2022-11-12T23:50:16.094Z,32.83
2022-11-12T23:53:39.155Z,32.25
2022-11-12T23:57:00.987Z,31.63
